Time;durP1;ratioP1;P1;durP2;ratioP2;P2;SDS_P1;SDS_P2;PMS_P1;PMS_P2;Temp;Humidity;BMP_temperature;BMP_pressure;BME280_temperature;BME280_humidity;BME280_pressure;Samples;Min_cycle;Max_cycle;Signal;HPM_P1;HPM_P2
2022/01/21 00:01:21;;;;;;;10.73;2.50;;;;;;;13.86;37.29;103516.69;5099891;28;20483;-67
2022/01/21 00:03:48;;;;;;;8.30;1.80;;;;;;;13.39;39.09;103518.44;5113559;27;20047;-68
2022/01/21 00:06:13;;;;;;;9.10;1.70;;;;;;;12.48;40.41;103518.94;5098240;28;20084;-67
2022/01/21 00:08:41;;;;;;;4.10;0.93;;;;;;;11.95;40.96;103521.97;5093396;28;20484;-67
2022/01/21 00:11:08;;;;;;;15.23;0.90;;;;;;;11.27;42.36;103520.00;5103772;28;20391;-67
2022/01/21 00:13:34;;;;;;;2.80;0.53;;;;;;;11.55;42.18;103520.81;5128892;28;20023;-67
2022/01/21 00:16:08;;;;;;;2.00;0.60;;;;;;;12.72;41.01;103518.66;5129812;28;20066;-68
2022/01/21 00:18:36;;;;;;;5.93;1.03;;;;;;;12.62;40.50;103524.53;5112232;28;20050;-68
2022/01/21 00:31:59;;;;;;;3.43;0.60;;;;;;;14.91;35.87;103526.41;5130278;28;20050;-67
2022/01/21 00:34:24;;;;;;;1.67;0.80;;;;;;;14.11;37.76;103530.31;5124079;28;20027;-67
2022/01/21 00:36:51;;;;;;;11.10;3.77;;;;;;;13.94;37.33;103528.25;5102373;28;20031;-68
2022/01/21 00:39:20;;;;;;;4.80;1.73;;;;;;;14.09;37.51;103532.91;5130670;27;20122;-68
2022/01/21 00:41:57;;;;;;;1.23;0.70;;;;;;;14.32;37.21;103538.59;5108323;27;20367;-67
2022/01/21 00:44:22;;;;;;;6.23;1.07;;;;;;;14.20;37.47;103530.47;5105258;28;20411;-68
2022/01/21 00:46:48;;;;;;;6.90;1.30;;;;;;;14.23;37.61;103526.16;5095801;27;20044;-67
2022/01/21 00:49:14;;;;;;;2.93;0.50;;;;;;;14.18;36.80;103537.47;5115013;27;20034;-67
2022/01/21 00:51:40;;;;;;;3.20;0.80;;;;;;;13.78;38.07;103536.69;5121888;27;20020;-68
2022/01/21 00:54:05;;;;;;;2.80;0.50;;;;;;;13.93;37.50;103529.13;5094848;28;20027;-68
2022/01/21 00:56:30;;;;;;;3.80;0.70;;;;;;;14.21;37.68;103532.25;5111039;27;20023;-68
2022/01/21 00:58:56;;;;;;;6.90;1.97;;;;;;;14.57;37.06;103531.97;5134114;27;20510;-68
2022/01/21 01:01:21;;;;;;;8.17;2.50;;;;;;;14.27;37.56;103532.34;5123802;27;20516;-68
2022/01/21 01:03:47;;;;;;;28.47;8.13;;;;;;;14.46;37.13;103532.69;5131484;27;20038;-67
2022/01/21 01:06:12;;;;;;;15.33;5.27;;;;;;;14.61;37.06;103538.19;5115209;27;20092;-67
2022/01/21 01:08:37;;;;;;;29.23;9.17;;;;;;;14.70;36.82;103538.38;5114943;27;20076;-68
2022/01/21 01:21:28;;;;;;;35.30;9.20;;;;;;;13.77;38.21;103527.06;5124440;27;20051;-68
2022/01/21 01:29:20;;;;;;;11.17;3.53;;;;;;;13.51;38.59;103524.78;5132908;27;20046;-68
2022/01/21 01:31:46;;;;;;;20.43;7.07;;;;;;;13.55;38.68;103518.75;5122107;27;20114;-68
2022/01/21 01:34:12;;;;;;;25.50;5.93;;;;;;;14.02;37.47;103516.13;5113115;27;20127;-67
2022/01/21 01:36:39;;;;;;;12.07;4.93;;;;;;;14.08;37.45;103521.53;5106104;27;20398;-67
2022/01/21 01:39:12;;;;;;;10.97;3.13;;;;;;;14.02;37.88;103516.13;5114580;27;20394;-68
2022/01/21 01:41:44;;;;;;;12.93;2.30;;;;;;;13.54;38.33;103515.22;5123904;27;20031;-68
2022/01/21 01:49:41;;;;;;;17.63;2.23;;;;;;;13.14;39.43;103529.22;5085504;27;20122;-67
2022/01/21 01:52:10;;;;;;;19.47;5.27;;;;;;;13.68;37.97;103520.78;5100389;28;20122;-68
2022/01/21 01:54:42;;;;;;;12.53;3.93;;;;;;;12.96;39.42;103533.22;5094782;27;20022;-68
2022/01/21 01:57:07;;;;;;;16.27;3.70;;;;;;;14.25;37.44;103518.31;5093732;28;20426;-68
2022/01/21 01:59:33;;;;;;;7.27;1.13;;;;;;;14.60;36.76;103525.88;5093569;28;20339;-68
2022/01/21 02:02:03;;;;;;;7.60;1.00;;;;;;;14.15;37.16;103526.88;5103320;28;20068;-67
2022/01/21 02:04:29;;;;;;;8.90;1.80;;;;;;;14.94;36.32;103521.16;5093542;28;20036;-67
2022/01/21 02:06:54;;;;;;;4.80;0.67;;;;;;;14.78;36.27;103530.56;5113177;27;20031;-67
2022/01/21 02:09:20;;;;;;;6.00;0.80;;;;;;;14.68;36.04;103529.56;5113468;27;20019;-67
2022/01/21 02:11:46;;;;;;;3.47;0.63;;;;;;;14.32;36.83;103529.81;5105819;28;20031;-67
2022/01/21 02:14:16;;;;;;;7.30;0.90;;;;;;;13.90;36.96;103529.06;5114999;27;20028;-67
2022/01/21 02:22:21;;;;;;;9.37;1.30;;;;;;;14.30;36.31;103536.78;5119407;27;20046;-67
2022/01/21 02:27:12;;;;;;;13.63;4.00;;;;;;;13.83;37.17;103542.94;5131560;27;20035;-67
2022/01/21 02:29:46;;;;;;;13.47;3.07;;;;;;;13.55;37.62;103534.50;5113730;27;20055;-68
2022/01/21 02:32:12;;;;;;;15.10;3.23;;;;;;;13.73;37.39;103536.63;5111948;27;20034;-67
2022/01/21 02:34:38;;;;;;;9.13;2.40;;;;;;;13.64;37.44;103528.53;5112661;27;20015;-67
2022/01/21 02:37:04;;;;;;;7.77;1.73;;;;;;;13.28;37.99;103530.41;5113422;27;20179;-67
2022/01/21 02:39:29;;;;;;;9.60;2.07;;;;;;;13.59;37.76;103523.22;5113187;27;20113;-67
2022/01/21 02:41:55;;;;;;;7.70;1.73;;;;;;;13.79;36.97;103517.44;5130467;27;20023;-67
2022/01/21 02:44:21;;;;;;;3.43;1.73;;;;;;;13.55;37.24;103535.38;5130919;27;20023;-67
2022/01/21 02:46:54;;;;;;;10.87;1.80;;;;;;;13.56;37.71;103531.03;5113213;27;20121;-67
2022/01/21 02:49:19;;;;;;;;;;;;;;;13.65;37.84;103531.19;5131803;27;20106;-67
2022/01/21 02:51:45;;;;;;;4.83;0.97;;;;;;;13.53;38.03;103526.59;5131164;27;20015;-67
2022/01/21 02:54:10;;;;;;;12.50;1.30;;;;;;;13.91;37.73;103517.69;5111417;27;20363;-67
2022/01/21 02:56:38;;;;;;;4.80;1.87;;;;;;;14.24;37.27;103517.41;5117111;27;20449;-67
2022/01/21 02:59:06;;;;;;;12.40;0.90;;;;;;;14.06;37.38;103517.97;5104793;27;20023;-67
2022/01/21 03:01:33;;;;;;;5.17;1.00;;;;;;;14.58;36.61;103517.09;5112061;27;20516;-67
2022/01/21 03:03:59;;;;;;;9.13;1.70;;;;;;;14.07;36.78;103514.47;5129892;27;20473;-67
2022/01/21 03:06:25;;;;;;;4.80;1.00;;;;;;;14.41;36.30;103525.59;5112701;27;20046;-67
2022/01/21 03:08:53;;;;;;;3.57;0.80;;;;;;;14.07;36.47;103509.22;5111950;27;20457;-67
2022/01/21 03:11:21;;;;;;;8.63;0.90;;;;;;;13.75;37.46;103513.88;5112594;27;20027;-67
2022/01/21 03:13:46;;;;;;;6.33;1.13;;;;;;;14.02;37.30;103513.50;5130670;27;20421;-67
2022/01/21 03:16:12;;;;;;;8.13;0.93;;;;;;;14.04;37.05;103517.06;5112069;27;20031;-67
2022/01/21 03:18:37;;;;;;;12.67;3.93;;;;;;;13.71;38.26;103515.56;5123933;27;20024;-67
2022/01/21 03:21:03;;;;;;;18.73;5.47;;;;;;;14.17;37.46;103519.91;5092316;28;20085;-67
2022/01/21 03:23:29;;;;;;;19.73;5.87;;;;;;;13.95;37.61;103524.78;5120942;27;21262;-67
2022/01/21 03:25:55;;;;;;;17.23;4.10;;;;;;;14.02;37.01;103516.13;5112981;27;20501;-66
2022/01/21 03:28:20;;;;;;;8.53;1.70;;;;;;;13.90;37.86;103518.53;5123913;27;20075;-67
2022/01/21 03:30:46;;;;;;;8.07;1.97;;;;;;;13.08;39.12;103519.47;5112600;27;20034;-67
2022/01/21 03:33:11;;;;;;;5.30;2.00;;;;;;;13.65;38.46;103514.56;5111598;27;20110;-67
2022/01/21 03:35:37;;;;;;;10.67;2.63;;;;;;;13.85;37.67;103522.84;5112805;27;20026;-67
2022/01/21 03:38:03;;;;;;;21.20;3.70;;;;;;;13.89;38.23;103516.78;5124453;27;20023;-67
2022/01/21 03:40:29;;;;;;;17.27;4.20;;;;;;;13.85;38.03;103513.19;5091981;28;20027;-67
2022/01/21 03:42:55;;;;;;;20.33;5.67;;;;;;;13.92;37.78;103529.97;5113592;27;20150;-67
2022/01/21 03:45:20;;;;;;;16.67;5.13;;;;;;;14.04;37.03;103524.94;5112201;27;20467;-67
2022/01/21 03:47:46;;;;;;;18.47;5.23;;;;;;;14.24;36.83;103527.03;5123930;27;20490;-67
2022/01/21 03:50:31;;;;;;;17.90;4.17;;;;;;;14.15;37.49;103537.41;5129333;27;20593;-67
2022/01/21 03:52:57;;;;;;;18.37;5.10;;;;;;;14.08;36.85;103536.38;5099352;28;20031;-67
2022/01/21 03:55:22;;;;;;;20.33;5.47;;;;;;;13.99;37.00;103537.13;5109900;28;20182;-67
2022/01/21 03:57:48;;;;;;;6.50;2.33;;;;;;;14.03;37.55;103533.69;5103074;27;20028;-67
2022/01/21 04:00:19;;;;;;;3.83;1.20;;;;;;;13.82;37.97;103544.69;5091817;28;20058;-67
2022/01/21 04:02:45;;;;;;;13.37;1.83;;;;;;;13.81;37.53;103547.31;5107050;27;20050;-67
2022/01/21 04:05:10;;;;;;;2.70;1.00;;;;;;;13.60;37.78;103548.66;5111096;28;20243;-66
2022/01/21 04:07:36;;;;;;;5.20;0.70;;;;;;;13.76;37.24;103554.19;5104666;28;20126;-66
2022/01/21 04:10:02;;;;;;;6.93;1.73;;;;;;;13.69;37.39;103554.06;5111350;28;20038;-66
2022/01/21 04:12:28;;;;;;;7.10;1.00;;;;;;;13.53;37.96;103550.25;5111149;28;20031;-67
2022/01/21 04:14:53;;;;;;;2.83;0.67;;;;;;;13.87;37.46;103536.88;5111927;28;20444;-66
2022/01/21 04:17:18;;;;;;;8.00;0.70;;;;;;;14.01;36.63;103539.78;5129120;28;20027;-67
2022/01/21 04:19:44;;;;;;;6.90;0.80;;;;;;;13.88;37.27;103543.94;5108285;28;20051;-67
2022/01/21 04:22:09;;;;;;;13.20;1.30;;;;;;;13.60;36.91;103543.38;5111443;28;20110;-69
2022/01/21 04:24:36;;;;;;;6.03;0.80;;;;;;;13.96;36.81;103542.34;5130436;28;20046;-69
2022/01/21 04:27:01;;;;;;;3.03;0.97;;;;;;;13.66;37.44;103547.88;5128701;28;20106;-69
2022/01/21 04:29:27;;;;;;;2.83;0.70;;;;;;;13.78;37.21;103548.13;5108984;28;20130;-69
2022/01/21 04:31:52;;;;;;;4.83;1.10;;;;;;;13.76;37.18;103541.06;5111975;28;20478;-69
2022/01/21 04:34:17;;;;;;;5.33;1.30;;;;;;;13.64;36.98;103545.22;5111476;28;20498;-69
2022/01/21 04:36:43;;;;;;;6.97;0.90;;;;;;;13.42;37.44;103543.00;5130288;28;20463;-69
2022/01/21 04:39:15;;;;;;;5.23;0.90;;;;;;;13.37;37.64;103545.53;5099523;28;20028;-69
2022/01/21 04:49:40;;;;;;;6.87;2.70;;;;;;;13.52;38.05;103556.34;5124642;28;20046;-69
2022/01/21 04:52:06;;;;;;;20.23;8.47;;;;;;;13.62;37.69;103557.44;5111732;28;20016;-69
2022/01/21 04:54:33;;;;;;;9.93;2.07;;;;;;;13.29;38.61;103547.06;5111112;28;20122;-69
2022/01/21 04:56:58;;;;;;;7.20;1.00;;;;;;;13.47;38.35;103549.22;5111690;28;20027;-69
2022/01/21 04:59:24;;;;;;;2.93;0.73;;;;;;;13.67;37.85;103550.53;5104467;28;20030;-69
2022/01/21 05:01:49;;;;;;;13.57;1.23;;;;;;;13.66;37.86;103548.75;5129706;28;20031;-67
2022/01/21 05:04:15;;;;;;;11.57;0.93;;;;;;;13.73;37.49;103545.38;5129801;28;20546;-67
2022/01/21 05:06:41;;;;;;;9.30;1.23;;;;;;;13.33;38.60;103549.78;5111076;28;20023;-67
2022/01/21 05:09:06;;;;;;;6.60;0.90;;;;;;;13.04;39.55;103557.03;5103481;28;20019;-67
2022/01/21 05:11:36;;;;;;;2.67;0.93;;;;;;;12.75;39.79;103548.44;5111325;28;20414;-67
2022/01/21 05:14:15;;;;;;;5.47;0.90;;;;;;;13.32;38.66;103536.63;5111400;28;20042;-66
2022/01/21 05:16:46;;;;;;;13.83;1.07;;;;;;;13.01;39.45;103542.09;5111173;28;20176;-67
2022/01/21 05:19:16;;;;;;;7.80;2.17;;;;;;;13.30;38.91;103533.06;5097694;28;20114;-67
2022/01/21 05:21:42;;;;;;;6.40;1.10;;;;;;;13.45;38.47;103527.28;5111029;28;20023;-67
2022/01/21 05:24:08;;;;;;;7.80;1.10;;;;;;;12.57;40.50;103523.56;5110479;28;20070;-67
2022/01/21 05:26:39;;;;;;;7.00;1.53;;;;;;;13.56;38.61;103520.53;5113140;27;20065;-67
2022/01/21 05:29:06;;;;;;;14.83;2.20;;;;;;;13.27;38.96;103531.28;5103752;28;20039;-67
2022/01/21 05:31:32;;;;;;;6.97;1.10;;;;;;;13.79;38.12;103527.97;5115150;27;20046;-67
2022/01/21 05:33:57;;;;;;;9.90;2.00;;;;;;;13.87;37.82;103522.00;5114885;27;20063;-67
2022/01/21 05:36:23;;;;;;;2.73;1.23;;;;;;;13.45;38.59;103527.28;5113024;27;20018;-67
2022/01/21 05:38:49;;;;;;;5.23;1.03;;;;;;;13.62;38.20;103519.75;5125386;27;20051;-67
2022/01/21 05:41:14;;;;;;;3.77;1.10;;;;;;;12.55;40.86;103525.22;5111650;27;20023;-67
2022/01/21 05:43:45;;;;;;;1.63;0.60;;;;;;;13.17;39.54;103539.78;5113936;27;20039;-67
2022/01/21 05:46:30;;;;;;;9.83;1.67;;;;;;;13.88;38.71;103530.78;5114430;27;20435;-67
2022/01/21 05:48:55;;;;;;;10.17;1.30;;;;;;;14.48;37.51;103529.22;5111088;27;20629;-67
2022/01/21 05:51:21;;;;;;;8.53;1.67;;;;;;;14.24;37.98;103527.03;5112505;27;20114;-67
2022/01/21 05:53:46;;;;;;;7.23;1.10;;;;;;;13.76;39.19;103527.91;5133672;27;20054;-67
2022/01/21 05:56:12;;;;;;;6.07;1.70;;;;;;;14.08;38.66;103526.78;5114257;27;20437;-67
2022/01/21 05:58:38;;;;;;;4.37;1.30;;;;;;;13.73;38.71;103528.75;5106112;27;20023;-67
2022/01/21 06:01:03;;;;;;;3.20;0.90;;;;;;;13.81;38.68;103521.88;5132004;27;20039;-67
2022/01/21 06:03:31;;;;;;;5.23;1.30;;;;;;;14.24;37.97;103532.31;5114183;27;20100;-67
2022/01/21 06:05:57;;;;;;;8.03;2.07;;;;;;;14.32;38.27;103535.97;5113778;27;20039;-67
2022/01/21 06:08:22;;;;;;;3.57;1.33;;;;;;;14.49;37.77;103538.00;5124900;27;20407;-67
2022/01/21 06:10:48;;;;;;;6.70;1.37;;;;;;;14.55;37.78;103553.91;5113006;27;20110;-66
2022/01/21 06:13:16;;;;;;;6.53;1.10;;;;;;;13.21;40.67;103565.28;5114197;27;20031;-67
2022/01/21 06:15:42;;;;;;;3.87;1.77;;;;;;;13.49;39.42;103545.78;5132443;27;20015;-68
2022/01/21 06:18:07;;;;;;;4.50;1.20;;;;;;;14.66;37.08;103552.34;5128888;27;20484;-67
2022/01/21 06:20:32;;;;;;;8.57;1.77;;;;;;;14.65;37.80;103550.56;5113666;27;20142;-67
2022/01/21 06:22:58;;;;;;;11.20;3.70;;;;;;;14.65;37.42;103550.56;5114210;27;20034;-67
2022/01/21 06:25:23;;;;;;;52.10;16.10;;;;;;;14.78;37.39;103562.16;5112552;27;20039;-67
2022/01/21 06:27:48;;;;;;;65.63;20.47;;;;;;;15.12;36.84;103552.16;5110946;27;20027;-66
2022/01/21 06:30:14;;;;;;;24.63;9.13;;;;;;;14.96;37.16;103561.59;5124578;27;20483;-67
2022/01/21 06:32:41;;;;;;;23.73;8.10;;;;;;;14.54;38.01;103562.66;5131267;27;20094;-67
2022/01/21 06:35:08;;;;;;;43.80;14.67;;;;;;;14.10;39.37;103560.13;5132032;27;20039;-66
2022/01/21 06:37:34;;;;;;;24.37;9.37;;;;;;;13.95;39.47;103571.22;5111319;28;20043;-67
2022/01/21 06:39:59;;;;;;;27.87;9.23;;;;;;;13.36;40.19;103563.00;5101170;27;20054;-67
2022/01/21 06:42:26;;;;;;;13.07;4.57;;;;;;;13.11;40.94;103576.44;5113581;27;20035;-67
2022/01/21 06:44:52;;;;;;;3.80;1.87;;;;;;;12.47;42.83;103584.50;5112894;27;20023;-67
2022/01/21 06:47:18;;;;;;;5.00;1.23;;;;;;;12.83;43.70;103578.38;5112897;27;20023;-67
2022/01/21 06:49:44;;;;;;;2.40;1.10;;;;;;;12.85;43.37;103579.31;5098282;27;20022;-67
2022/01/21 06:52:10;;;;;;;3.37;1.23;;;;;;;13.37;42.85;103569.16;5111231;27;20039;-67
2022/01/21 06:54:35;;;;;;;9.17;1.93;;;;;;;13.37;41.82;103587.56;5112453;27;20035;-67
2022/01/21 06:57:00;;;;;;;6.27;1.53;;;;;;;14.09;40.54;103575.00;5110862;27;20112;-67
2022/01/21 06:59:26;;;;;;;6.43;1.43;;;;;;;13.73;42.05;103571.66;5127851;27;20050;-67
2022/01/21 07:01:51;;;;;;;8.60;1.40;;;;;;;14.91;39.40;103573.81;5125672;27;20106;-67
2022/01/21 07:04:16;;;;;;;6.37;1.30;;;;;;;13.97;41.48;103575.66;5092828;28;20038;-67
2022/01/21 07:06:42;;;;;;;2.57;1.13;;;;;;;14.93;39.53;103577.31;5110716;27;20502;-67
2022/01/21 07:09:07;;;;;;;2.93;1.50;;;;;;;15.83;37.43;103568.91;5130621;27;20025;-67
2022/01/21 07:11:32;;;;;;;10.17;1.50;;;;;;;15.54;37.40;103565.91;5103587;27;20072;-67
2022/01/21 07:13:58;;;;;;;10.23;1.77;;;;;;;15.87;37.13;103559.28;5112207;27;20451;-67
2022/01/21 07:16:23;;;;;;;4.67;1.40;;;;;;;15.46;37.64;103563.16;5112576;27;20027;-67
2022/01/21 07:18:48;;;;;;;9.83;1.90;;;;;;;15.15;37.60;103567.13;5131043;27;20027;-66
2022/01/21 07:21:14;;;;;;;7.30;1.67;;;;;;;15.76;36.12;103569.69;5130519;27;20091;-67
2022/01/21 07:23:39;;;;;;;9.00;1.37;;;;;;;15.24;37.57;103577.78;5112673;27;20099;-67
2022/01/21 07:26:05;;;;;;;6.13;1.30;;;;;;;15.36;37.06;103577.06;5124185;27;20031;-67
2022/01/21 07:28:32;;;;;;;6.13;1.30;;;;;;;15.02;36.82;103593.28;5128610;27;20101;-67
2022/01/21 07:30:58;;;;;;;8.20;1.33;;;;;;;15.25;36.35;103590.97;5113052;27;20390;-67
2022/01/21 07:33:23;;;;;;;8.33;1.30;;;;;;;15.03;36.77;103595.06;5108546;28;20081;-67
2022/01/21 07:35:48;;;;;;;4.87;1.50;;;;;;;14.56;37.23;103592.50;5106176;27;20015;-67
2022/01/21 07:38:14;;;;;;;8.80;2.13;;;;;;;14.30;37.53;103594.66;5112127;27;20031;-67
2022/01/21 07:40:40;;;;;;;5.03;2.00;;;;;;;14.28;37.58;103601.66;5131118;27;20054;-67
2022/01/21 07:43:05;;;;;;;6.73;1.40;;;;;;;14.00;38.03;103594.13;5129988;27;20058;-67
2022/01/21 07:45:30;;;;;;;5.47;1.80;;;;;;;14.34;37.59;103597.41;5112150;27;20023;-67
2022/01/21 07:47:56;;;;;;;8.43;1.70;;;;;;;14.18;37.68;103587.44;5130640;27;20375;-67
2022/01/21 07:50:22;;;;;;;9.43;2.10;;;;;;;14.42;36.93;103594.88;5110942;27;20082;-67
2022/01/21 07:52:47;;;;;;;4.93;2.00;;;;;;;14.03;37.80;103594.19;5131366;27;20546;-67
2022/01/21 07:55:13;;;;;;;3.43;2.40;;;;;;;13.67;38.30;103596.94;5112070;27;20030;-67
2022/01/21 07:57:39;;;;;;;14.30;2.50;;;;;;;13.95;37.87;103595.78;5113794;27;20031;-67
2022/01/21 08:00:05;;;;;;;7.03;1.80;;;;;;;13.67;38.48;103595.22;5110556;27;20016;-67
2022/01/21 08:02:32;;;;;;;11.93;2.37;;;;;;;13.82;37.69;103597.28;5097108;28;20031;-67
2022/01/21 08:05:00;;;;;;;7.83;1.93;;;;;;;14.00;37.26;103591.50;5103314;27;20038;-67
2022/01/21 08:07:26;;;;;;;8.47;2.03;;;;;;;13.85;37.93;103591.19;5125907;27;20031;-67
2022/01/21 08:09:53;;;;;;;8.23;2.37;;;;;;;13.71;38.76;103594.44;5129866;27;20038;-67
2022/01/21 08:12:18;;;;;;;6.73;2.30;;;;;;;13.92;39.07;103582.56;5129295;27;20039;-67
2022/01/21 08:14:44;;;;;;;5.67;1.60;;;;;;;14.06;38.58;103581.06;5111791;28;20026;-66
2022/01/21 08:17:09;;;;;;;3.73;1.80;;;;;;;14.08;38.68;103589.00;5110689;28;20027;-67
2022/01/21 08:19:35;;;;;;;5.33;2.20;;;;;;;14.49;37.91;103591.50;5111065;28;20030;-67
2022/01/21 08:22:00;;;;;;;10.40;1.93;;;;;;;14.67;37.65;103597.97;5130526;28;20356;-67
2022/01/21 08:24:26;;;;;;;9.17;2.33;;;;;;;14.96;37.07;103602.81;5111065;28;20537;-67
2022/01/21 08:26:51;;;;;;;6.77;2.40;;;;;;;14.98;36.75;103611.66;5091797;28;20043;-67
2022/01/21 08:29:17;;;;;;;5.97;2.83;;;;;;;14.75;37.37;103610.44;5110207;28;20031;-67
2022/01/21 08:31:43;;;;;;;4.37;2.17;;;;;;;14.29;38.28;103606.03;5090972;28;20505;-67
2022/01/21 08:34:08;;;;;;;11.60;1.90;;;;;;;14.03;39.79;103606.44;5110275;28;20031;-67
2022/01/21 08:36:34;;;;;;;9.87;2.67;;;;;;;14.32;38.70;103604.38;5118046;28;20024;-67
2022/01/21 08:38:59;;;;;;;9.90;3.83;;;;;;;14.76;37.95;103599.00;5091171;28;20432;-67
2022/01/21 08:41:25;;;;;;;7.93;3.60;;;;;;;14.95;37.52;103607.22;5124541;28;20035;-67
2022/01/21 08:43:50;;;;;;;7.73;2.40;;;;;;;14.83;38.17;103602.63;5130038;28;20027;-67
2022/01/21 08:46:15;;;;;;;10.93;3.07;;;;;;;15.24;37.24;103585.69;5101851;28;20550;-67
2022/01/21 08:48:41;;;;;;;9.10;2.97;;;;;;;15.30;37.31;103593.66;5116835;28;20027;-67
2022/01/21 08:51:12;;;;;;;11.90;3.20;;;;;;;15.34;37.53;103591.97;5129371;28;20993;-67
2022/01/21 08:53:40;;;;;;;8.20;2.43;;;;;;;15.41;37.69;103571.00;5109555;28;20023;-67
2022/01/21 08:56:09;;;;;;;10.07;2.57;;;;;;;15.49;37.70;103573.72;5110270;28;20164;-67
2022/01/21 08:58:35;;;;;;;7.57;2.33;;;;;;;15.35;37.65;103570.03;5128706;28;20023;-67
2022/01/21 09:01:00;;;;;;;10.43;3.17;;;;;;;15.77;36.97;103574.97;5111313;27;20023;-67
2022/01/21 09:03:26;;;;;;;7.87;2.93;;;;;;;15.80;37.32;103567.97;5113130;27;20516;-67
2022/01/21 09:05:51;;;;;;;9.60;2.20;;;;;;;16.10;37.43;103568.31;5133340;27;20078;-67
2022/01/21 09:08:18;;;;;;;3.73;2.10;;;;;;;16.35;36.84;103579.13;5098501;27;20069;-66
2022/01/21 09:10:44;;;;;;;9.43;2.47;;;;;;;16.20;36.96;103578.97;5125701;27;20042;-67
2022/01/21 09:13:10;;;;;;;9.53;3.03;;;;;;;15.88;38.68;103575.13;5114923;27;20019;-67
2022/01/21 09:15:36;;;;;;;15.20;2.27;;;;;;;15.38;39.14;103576.22;5102768;27;20169;-67
2022/01/21 09:18:05;;;;;;;15.33;2.23;;;;;;;16.68;37.50;103575.00;5105576;27;20034;-67
2022/01/21 09:20:36;;;;;;;5.33;1.80;;;;;;;16.45;37.36;103580.94;5113472;27;20120;-67
2022/01/21 09:23:03;;;;;;;5.87;1.70;;;;;;;17.13;36.79;103586.78;5112692;27;20055;-67
2022/01/21 09:25:29;;;;;;;8.70;2.20;;;;;;;16.45;38.19;103588.88;5122888;27;20047;-67
2022/01/21 09:27:54;;;;;;;13.57;1.70;;;;;;;15.63;39.28;103579.16;5096460;27;20019;-67
2022/01/21 09:30:19;;;;;;;47.70;16.37;;;;;;;16.70;38.78;103572.38;5131417;27;20035;-66
2022/01/21 09:32:45;;;;;;;132.73;40.03;;;;;;;16.54;38.42;103574.88;5110437;28;20020;-67
2022/01/21 09:35:11;;;;;;;33.00;11.07;;;;;;;17.07;37.36;103573.53;5092914;28;20395;-67
2022/01/21 09:37:37;;;;;;;15.93;6.20;;;;;;;16.70;37.84;103575.88;5095714;27;20077;-67
2022/01/21 09:40:05;;;;;;;12.40;4.13;;;;;;;17.49;36.71;103576.41;5113999;27;20019;-67
2022/01/21 09:42:33;;;;;;;14.00;2.97;;;;;;;16.95;37.88;103581.38;5129875;27;20019;-67
2022/01/21 09:44:59;;;;;;;14.43;2.40;;;;;;;17.52;37.74;103581.69;5106827;27;20115;-67
2022/01/21 09:47:25;;;;;;;10.90;1.97;;;;;;;16.14;38.83;103581.53;5131794;27;20027;-67
2022/01/21 09:49:54;;;;;;;8.07;1.97;;;;;;;16.23;39.79;103579.00;5124514;27;20035;-67
2022/01/21 09:52:21;;;;;;;7.70;2.00;;;;;;;16.74;39.21;103588.22;5129437;27;20418;-67
2022/01/21 09:54:48;;;;;;;13.47;2.30;;;;;;;16.44;39.41;103589.78;5131904;27;20026;-67
2022/01/21 09:57:22;;;;;;;11.73;2.73;;;;;;;17.17;37.83;103586.81;5130466;27;20049;-67
2022/01/21 09:59:52;;;;;;;12.47;2.43;;;;;;;15.64;41.16;103599.41;5113674;27;20371;-68
2022/01/21 10:02:25;;;;;;;8.30;1.63;;;;;;;15.81;40.63;103607.53;5110679;27;20392;-67
2022/01/21 10:04:52;;;;;;;11.07;2.05;;;;;;;15.58;41.11;103600.22;5129033;27;20518;-67
2022/01/21 10:07:21;;;;;;;11.70;1.53;;;;;;;16.99;39.43;103609.59;5131062;27;20030;-67
2022/01/21 10:09:48;;;;;;;7.33;1.40;;;;;;;16.06;40.25;103602.56;5131316;27;20027;-67
2022/01/21 10:12:15;;;;;;;12.83;1.70;;;;;;;16.53;39.47;103606.56;5112752;27;20071;-67
2022/01/21 10:14:41;;;;;;;7.43;2.33;;;;;;;15.87;41.04;103606.75;5107990;27;20509;-67
2022/01/21 10:17:08;;;;;;;6.00;1.90;;;;;;;17.19;39.28;103616.78;5108849;27;20368;-67
2022/01/21 10:19:35;;;;;;;2.70;1.00;;;;;;;17.30;38.65;103615.09;5111293;27;20483;-67
2022/01/21 10:22:06;;;;;;;4.83;0.87;;;;;;;17.44;39.01;103616.03;5109623;28;20035;-67
2022/01/21 10:24:34;;;;;;;12.20;2.63;;;;;;;17.01;39.40;103631.63;5097517;28;20039;-67
2022/01/21 10:27:00;;;;;;;3.77;1.27;;;;;;;16.06;41.23;103632.47;5103081;28;20023;-67
2022/01/21 10:29:38;;;;;;;6.43;1.83;;;;;;;16.54;41.36;103634.72;5103658;28;20050;-67
2022/01/21 10:32:03;;;;;;;7.30;1.00;;;;;;;15.90;42.23;103634.03;5098162;28;20092;-67
2022/01/21 10:34:55;;;;;;;6.27;1.30;;;;;;;16.70;41.00;103633.97;5099148;28;20024;-67
2022/01/21 10:37:38;;;;;;;10.47;1.20;;;;;;;17.15;40.79;103620.28;5090189;28;20040;-67
2022/01/21 10:40:08;;;;;;;7.27;0.97;;;;;;;16.54;40.98;103610.94;5104596;28;20030;-67
2022/01/21 10:42:34;;;;;;;3.90;0.67;;;;;;;16.94;39.99;103608.69;5106873;28;20031;-67
2022/01/21 10:45:00;;;;;;;10.30;1.00;;;;;;;16.58;41.21;103608.38;5103220;28;20039;-68
2022/01/21 10:47:34;;;;;;;5.57;0.80;;;;;;;17.06;40.63;103595.56;5100918;28;20024;-67
2022/01/21 10:50:11;;;;;;;6.70;0.90;;;;;;;16.55;41.17;103610.09;5097386;28;20028;-67
2022/01/21 10:52:43;;;;;;;9.70;3.00;;;;;;;16.66;41.52;103605.78;5105983;28;20019;-67
2022/01/21 10:55:36;;;;;;;12.95;3.22;;;;;;;16.45;40.74;103602.06;5100940;28;20019;-67
2022/01/21 10:58:13;;;;;;;18.63;6.18;;;;;;;16.76;40.64;103594.44;5102526;28;20034;-67
2022/01/21 11:01:00;;;;;;;4.83;1.07;;;;;;;16.26;41.96;103595.72;5098183;28;20036;-67
2022/01/21 11:03:29;;;;;;;12.63;2.33;;;;;;;16.65;40.75;103593.47;5098945;28;20024;-67
2022/01/21 11:06:21;;;;;;;6.10;1.07;;;;;;;16.91;40.01;103598.06;5092423;28;20178;-67
2022/01/21 11:08:46;;;;;;;11.10;1.80;;;;;;;16.82;39.67;103600.63;5096427;28;20092;-68
2022/01/21 11:11:12;;;;;;;7.73;1.50;;;;;;;16.15;40.82;103593.88;5105613;28;20483;-67
2022/01/21 11:13:40;;;;;;;3.47;1.57;;;;;;;16.57;40.31;103605.72;5101584;28;20045;-67
2022/01/21 11:16:16;;;;;;;24.73;8.03;;;;;;;17.15;39.57;103602.66;5101560;28;20119;-67
2022/01/21 11:19:11;;;;;;;24.23;7.13;;;;;;;16.90;39.99;103602.50;5101858;28;20085;-67
2022/01/21 11:21:45;;;;;;;9.50;2.90;;;;;;;16.51;40.03;103605.66;5079352;28;20089;-68
2022/01/21 11:24:12;;;;;;;16.10;3.73;;;;;;;16.09;41.07;103598.22;5102186;28;20456;-67
2022/01/21 11:26:38;;;;;;;6.20;2.13;;;;;;;16.69;40.63;103597.91;5096667;28;20038;-67
2022/01/21 11:29:05;;;;;;;6.53;1.90;;;;;;;15.31;41.68;103606.00;5097227;28;20475;-67
2022/01/21 11:31:31;;;;;;;11.87;2.40;;;;;;;17.19;39.02;103606.22;5099540;28;20065;-67
2022/01/21 11:33:56;;;;;;;5.83;1.20;;;;;;;16.18;39.61;103593.88;5104522;28;20035;-68
2022/01/21 11:36:22;;;;;;;8.03;1.57;;;;;;;17.17;38.54;103602.66;5103077;28;20461;-67
2022/01/21 11:38:48;;;;;;;10.23;3.03;;;;;;;18.25;35.76;103597.81;5103766;28;20023;-67
2022/01/21 11:41:14;;;;;;;6.37;2.90;;;;;;;17.41;37.08;103594.88;5106208;28;20031;-67
2022/01/21 11:43:49;;;;;;;10.77;2.73;;;;;;;15.90;39.63;103605.03;5104343;28;20079;-67
2022/01/21 11:46:20;;;;;;;8.20;2.73;;;;;;;17.21;37.45;103599.16;5106054;28;20034;-67
2022/01/21 11:48:52;;;;;;;10.87;2.60;;;;;;;18.24;36.20;103590.75;5107104;28;20027;-67
2022/01/21 11:51:23;;;;;;;14.27;2.75;;;;;;;17.55;36.87;103581.72;5107001;28;20114;-67
2022/01/21 11:54:09;;;;;;;4.37;2.17;;;;;;;16.76;38.36;103568.03;5106169;28;20050;-68
2022/01/21 11:56:56;;;;;;;8.47;1.67;;;;;;;17.59;37.72;103564.09;5105258;28;20023;-67
2022/01/21 11:59:41;;;;;;;3.53;1.33;;;;;;;15.89;41.30;103573.34;5105636;28;20040;-67
2022/01/21 12:02:13;;;;;;;8.97;1.63;;;;;;;14.53;43.63;103569.63;5098058;28;20032;-67
2022/01/21 12:05:01;;;;;;;4.17;1.63;;;;;;;16.07;40.32;103568.31;5104984;28;20031;-67
2022/01/21 12:07:44;;;;;;;4.07;1.40;;;;;;;15.93;41.57;103580.44;5093727;28;20051;-67
2022/01/21 12:10:11;;;;;;;4.00;1.50;;;;;;;15.88;41.57;103587.41;5103276;28;20035;-68
2022/01/21 12:12:50;;;;;;;11.33;1.90;;;;;;;16.63;40.73;103571.44;5101364;28;20039;-68